sensor_id;sensor_type;location;lat;lon;timestamp;pressure;altitude;pressure_sealevel;temperature;humidity
9764;BME280;4921;43.214;27.936;2024-03-07T00:00:07;101243.19;;;8.08;62.49
9764;BME280;4921;43.214;27.936;2024-03-07T00:02:47;101244.88;;;7.78;63.15
9764;BME280;4921;43.214;27.936;2024-03-07T00:05:14;101245.00;;;7.73;64.32
9764;BME280;4921;43.214;27.936;2024-03-07T00:07:40;101239.16;;;8.05;62.01
9764;BME280;4921;43.214;27.936;2024-03-07T00:10:06;101223.53;;;8.06;62.84
9764;BME280;4921;43.214;27.936;2024-03-07T00:12:39;101237.63;;;8.30;61.53
9764;BME280;4921;43.214;27.936;2024-03-07T00:15:09;101241.22;;;7.91;63.03
9764;BME280;4921;43.214;27.936;2024-03-07T00:17:36;101244.31;;;7.98;62.82
9764;BME280;4921;43.214;27.936;2024-03-07T00:20:03;101235.94;;;8.12;63.11
9764;BME280;4921;43.214;27.936;2024-03-07T00:22:30;101236.25;;;8.02;62.52
9764;BME280;4921;43.214;27.936;2024-03-07T00:24:56;101227.81;;;7.81;62.59
9764;BME280;4921;43.214;27.936;2024-03-07T00:27:22;101232.50;;;7.98;61.99
9764;BME280;4921;43.214;27.936;2024-03-07T00:29:48;101234.50;;;8.06;62.34
9764;BME280;4921;43.214;27.936;2024-03-07T00:32:19;101216.84;;;7.81;62.01
9764;BME280;4921;43.214;27.936;2024-03-07T00:34:46;101213.97;;;7.47;63.78
9764;BME280;4921;43.214;27.936;2024-03-07T00:37:12;101217.19;;;7.18;64.42
9764;BME280;4921;43.214;27.936;2024-03-07T00:39:38;101222.41;;;7.28;64.75
9764;BME280;4921;43.214;27.936;2024-03-07T00:42:03;101213.81;;;7.52;62.77
9764;BME280;4921;43.214;27.936;2024-03-07T00:44:31;101217.91;;;7.32;64.21
9764;BME280;4921;43.214;27.936;2024-03-07T00:46:57;101195.75;;;7.42;63.04
9764;BME280;4921;43.214;27.936;2024-03-07T00:49:23;101219.66;;;7.59;62.38
9764;BME280;4921;43.214;27.936;2024-03-07T00:51:50;101220.09;;;7.22;63.67
9764;BME280;4921;43.214;27.936;2024-03-07T00:54:15;101228.44;;;7.39;62.38
9764;BME280;4921;43.214;27.936;2024-03-07T00:56:42;101211.88;;;7.52;62.03
9764;BME280;4921;43.214;27.936;2024-03-07T00:59:07;101200.59;;;7.54;60.85
9764;BME280;4921;43.214;27.936;2024-03-07T01:01:33;101208.38;;;7.60;61.49
9764;BME280;4921;43.214;27.936;2024-03-07T01:04:00;101196.28;;;7.53;60.95
9764;BME280;4921;43.214;27.936;2024-03-07T01:06:26;101205.78;;;7.55;61.71
9764;BME280;4921;43.214;27.936;2024-03-07T01:08:52;101218.88;;;7.67;60.45
9764;BME280;4921;43.214;27.936;2024-03-07T01:11:17;101213.22;;;7.63;60.77
9764;BME280;4921;43.214;27.936;2024-03-07T01:13:43;101210.16;;;7.65;60.43
9764;BME280;4921;43.214;27.936;2024-03-07T01:16:09;101210.34;;;7.68;59.75
9764;BME280;4921;43.214;27.936;2024-03-07T01:18:35;101191.22;;;7.46;60.28
9764;BME280;4921;43.214;27.936;2024-03-07T01:21:02;101214.00;;;7.55;60.45
9764;BME280;4921;43.214;27.936;2024-03-07T01:23:28;101222.88;;;7.61;59.35
9764;BME280;4921;43.214;27.936;2024-03-07T01:25:55;101212.38;;;7.54;59.32
9764;BME280;4921;43.214;27.936;2024-03-07T01:28:22;101205.38;;;7.09;60.84
9764;BME280;4921;43.214;27.936;2024-03-07T01:30:49;101214.84;;;7.03;60.53
9764;BME280;4921;43.214;27.936;2024-03-07T01:33:15;101208.84;;;7.23;60.84
9764;BME280;4921;43.214;27.936;2024-03-07T01:35:40;101219.09;;;7.40;59.42
9764;BME280;4921;43.214;27.936;2024-03-07T01:38:06;101222.63;;;7.40;59.45
9764;BME280;4921;43.214;27.936;2024-03-07T01:40:34;101218.13;;;7.44;58.75
9764;BME280;4921;43.214;27.936;2024-03-07T01:43:01;101226.53;;;7.48;59.65
9764;BME280;4921;43.214;27.936;2024-03-07T01:45:27;101210.72;;;7.45;59.91
9764;BME280;4921;43.214;27.936;2024-03-07T01:47:54;101219.47;;;7.55;59.54
9764;BME280;4921;43.214;27.936;2024-03-07T01:50:21;101206.09;;;7.54;58.68
9764;BME280;4921;43.214;27.936;2024-03-07T01:52:48;101196.03;;;7.41;60.13
9764;BME280;4921;43.214;27.936;2024-03-07T01:55:16;101210.09;;;7.48;59.05
9764;BME280;4921;43.214;27.936;2024-03-07T01:57:42;101215.56;;;7.48;59.43
9764;BME280;4921;43.214;27.936;2024-03-07T02:00:08;101217.03;;;7.45;60.52
9764;BME280;4921;43.214;27.936;2024-03-07T02:02:34;101218.63;;;7.46;59.76
9764;BME280;4921;43.214;27.936;2024-03-07T02:05:00;101221.69;;;7.45;59.75
9764;BME280;4921;43.214;27.936;2024-03-07T02:07:26;101223.13;;;7.12;61.08
9764;BME280;4921;43.214;27.936;2024-03-07T02:10:00;101208.16;;;6.65;61.98
9764;BME280;4921;43.214;27.936;2024-03-07T02:12:26;101213.50;;;6.92;60.67
9764;BME280;4921;43.214;27.936;2024-03-07T02:14:52;101196.25;;;6.92;61.18
9764;BME280;4921;43.214;27.936;2024-03-07T02:17:17;101210.38;;;7.07;61.17
9764;BME280;4921;43.214;27.936;2024-03-07T02:19:43;101218.97;;;7.14;60.40
9764;BME280;4921;43.214;27.936;2024-03-07T02:22:09;101231.50;;;7.15;61.17
9764;BME280;4921;43.214;27.936;2024-03-07T02:24:34;101220.56;;;7.15;59.68
9764;BME280;4921;43.214;27.936;2024-03-07T02:27:00;101238.97;;;7.23;60.16
9764;BME280;4921;43.214;27.936;2024-03-07T02:29:25;101223.66;;;7.22;59.39
9764;BME280;4921;43.214;27.936;2024-03-07T02:31:51;101241.09;;;7.26;60.41
9764;BME280;4921;43.214;27.936;2024-03-07T02:34:17;101228.31;;;6.91;60.26
9764;BME280;4921;43.214;27.936;2024-03-07T02:36:42;101222.25;;;6.58;62.01
9764;BME280;4921;43.214;27.936;2024-03-07T02:39:08;101234.06;;;6.45;62.54
9764;BME280;4921;43.214;27.936;2024-03-07T02:41:35;101233.44;;;6.48;62.38
9764;BME280;4921;43.214;27.936;2024-03-07T02:44:01;101241.25;;;6.41;62.61
9764;BME280;4921;43.214;27.936;2024-03-07T02:46:29;101226.50;;;6.29;63.14
9764;BME280;4921;43.214;27.936;2024-03-07T02:48:54;101241.66;;;6.48;63.37
9764;BME280;4921;43.214;27.936;2024-03-07T02:51:20;101243.09;;;6.46;62.84
9764;BME280;4921;43.214;27.936;2024-03-07T02:53:45;101246.78;;;6.63;62.43
9764;BME280;4921;43.214;27.936;2024-03-07T02:56:11;101231.59;;;6.57;62.57
9764;BME280;4921;43.214;27.936;2024-03-07T02:58:37;101242.59;;;6.44;62.64
9764;BME280;4921;43.214;27.936;2024-03-07T03:01:02;101251.31;;;6.32;63.17
9764;BME280;4921;43.214;27.936;2024-03-07T03:03:31;101239.66;;;6.27;63.95
9764;BME280;4921;43.214;27.936;2024-03-07T03:05:58;101227.59;;;6.41;63.21
9764;BME280;4921;43.214;27.936;2024-03-07T03:08:24;101237.00;;;6.49;62.20
9764;BME280;4921;43.214;27.936;2024-03-07T03:10:49;101256.59;;;6.64;62.27
9764;BME280;4921;43.214;27.936;2024-03-07T03:13:18;101240.09;;;6.56;64.06
9764;BME280;4921;43.214;27.936;2024-03-07T03:15:44;101246.22;;;6.53;64.38
9764;BME280;4921;43.214;27.936;2024-03-07T03:18:09;101251.44;;;6.63;62.95
9764;BME280;4921;43.214;27.936;2024-03-07T03:20:35;101250.47;;;6.45;64.10
9764;BME280;4921;43.214;27.936;2024-03-07T03:23:05;101247.06;;;6.62;63.42
9764;BME280;4921;43.214;27.936;2024-03-07T03:25:38;101234.38;;;6.30;64.14
9764;BME280;4921;43.214;27.936;2024-03-07T03:28:05;101256.13;;;6.49;62.87
9764;BME280;4921;43.214;27.936;2024-03-07T03:30:32;101246.81;;;6.50;64.37
9764;BME280;4921;43.214;27.936;2024-03-07T03:32:58;101249.06;;;6.70;64.44
9764;BME280;4921;43.214;27.936;2024-03-07T03:35:23;101248.81;;;6.58;63.48
9764;BME280;4921;43.214;27.936;2024-03-07T03:37:49;101250.09;;;6.74;64.25
9764;BME280;4921;43.214;27.936;2024-03-07T03:40:15;101255.13;;;6.81;62.68
9764;BME280;4921;43.214;27.936;2024-03-07T03:42:41;101254.28;;;6.58;64.06
9764;BME280;4921;43.214;27.936;2024-03-07T03:45:09;101259.28;;;6.78;63.39
9764;BME280;4921;43.214;27.936;2024-03-07T03:47:35;101256.59;;;6.87;62.45
9764;BME280;4921;43.214;27.936;2024-03-07T03:50:06;101253.53;;;6.66;63.89
9764;BME280;4921;43.214;27.936;2024-03-07T03:52:32;101259.97;;;6.84;63.48
9764;BME280;4921;43.214;27.936;2024-03-07T03:54:59;101247.66;;;6.95;62.91
9764;BME280;4921;43.214;27.936;2024-03-07T03:57:29;101256.00;;;6.90;63.20
9764;BME280;4921;43.214;27.936;2024-03-07T03:59:55;101253.72;;;6.92;63.55
9764;BME280;4921;43.214;27.936;2024-03-07T04:02:23;101240.13;;;6.78;64.56
9764;BME280;4921;43.214;27.936;2024-03-07T04:04:52;101254.28;;;7.02;62.94
9764;BME280;4921;43.214;27.936;2024-03-07T04:07:18;101250.75;;;7.02;61.86
9764;BME280;4921;43.214;27.936;2024-03-07T04:09:45;101247.59;;;7.08;62.29
9764;BME280;4921;43.214;27.936;2024-03-07T04:12:11;101230.16;;;7.04;59.84
9764;BME280;4921;43.214;27.936;2024-03-07T04:14:39;101245.56;;;7.22;59.04
9764;BME280;4921;43.214;27.936;2024-03-07T04:17:09;101247.72;;;7.34;59.11
9764;BME280;4921;43.214;27.936;2024-03-07T04:19:39;101249.22;;;7.40;58.23
9764;BME280;4921;43.214;27.936;2024-03-07T04:22:05;101253.91;;;7.48;57.19
9764;BME280;4921;43.214;27.936;2024-03-07T04:24:31;101248.44;;;7.48;57.29
9764;BME280;4921;43.214;27.936;2024-03-07T04:27:00;101261.44;;;7.64;57.01
9764;BME280;4921;43.214;27.936;2024-03-07T04:29:26;101252.75;;;7.71;56.07
9764;BME280;4921;43.214;27.936;2024-03-07T04:31:52;101258.91;;;7.76;56.06
9764;BME280;4921;43.214;27.936;2024-03-07T04:34:19;101252.78;;;7.79;56.42
9764;BME280;4921;43.214;27.936;2024-03-07T04:36:45;101251.34;;;7.82;55.60
9764;BME280;4921;43.214;27.936;2024-03-07T04:39:11;101255.41;;;7.84;55.54
9764;BME280;4921;43.214;27.936;2024-03-07T04:41:49;101264.91;;;7.87;55.40
9764;BME280;4921;43.214;27.936;2024-03-07T04:44:15;101256.16;;;7.76;52.85
9764;BME280;4921;43.214;27.936;2024-03-07T04:46:40;101255.50;;;7.79;53.08
9764;BME280;4921;43.214;27.936;2024-03-07T04:49:08;101267.47;;;7.83;54.37
9764;BME280;4921;43.214;27.936;2024-03-07T04:51:34;101248.59;;;7.82;52.97
9764;BME280;4921;43.214;27.936;2024-03-07T04:54:00;101265.25;;;7.94;52.89
9764;BME280;4921;43.214;27.936;2024-03-07T04:56:25;101278.03;;;7.99;53.84
9764;BME280;4921;43.214;27.936;2024-03-07T04:58:51;101263.16;;;7.91;53.91
9764;BME280;4921;43.214;27.936;2024-03-07T05:01:18;101272.03;;;7.97;51.96
9764;BME280;4921;43.214;27.936;2024-03-07T05:03:43;101277.00;;;7.86;53.08
9764;BME280;4921;43.214;27.936;2024-03-07T05:06:08;101273.97;;;7.96;53.43
9764;BME280;4921;43.214;27.936;2024-03-07T05:08:34;101277.88;;;8.04;53.90
9764;BME280;4921;43.214;27.936;2024-03-07T05:10:59;101291.13;;;8.10;53.09
9764;BME280;4921;43.214;27.936;2024-03-07T05:13:25;101284.31;;;8.08;53.46
9764;BME280;4921;43.214;27.936;2024-03-07T05:15:51;101285.31;;;8.12;52.90
9764;BME280;4921;43.214;27.936;2024-03-07T05:18:16;101284.03;;;8.18;52.84
9764;BME280;4921;43.214;27.936;2024-03-07T05:20:42;101284.03;;;8.18;51.71
9764;BME280;4921;43.214;27.936;2024-03-07T05:23:08;101270.66;;;8.16;52.79
9764;BME280;4921;43.214;27.936;2024-03-07T05:25:35;101277.47;;;8.27;52.17
9764;BME280;4921;43.214;27.936;2024-03-07T05:28:01;101295.56;;;8.37;53.26
9764;BME280;4921;43.214;27.936;2024-03-07T05:30:28;101287.84;;;8.39;53.13
9764;BME280;4921;43.214;27.936;2024-03-07T05:32:54;101282.97;;;8.36;52.68
9764;BME280;4921;43.214;27.936;2024-03-07T05:35:20;101274.44;;;8.37;52.05
9764;BME280;4921;43.214;27.936;2024-03-07T05:37:46;101292.53;;;8.55;52.72
9764;BME280;4921;43.214;27.936;2024-03-07T05:40:12;101295.13;;;8.60;52.95
9764;BME280;4921;43.214;27.936;2024-03-07T05:42:38;101288.34;;;8.58;52.75
9764;BME280;4921;43.214;27.936;2024-03-07T05:45:04;101297.88;;;8.69;51.94
9764;BME280;4921;43.214;27.936;2024-03-07T05:47:33;101294.16;;;8.65;50.45
9764;BME280;4921;43.214;27.936;2024-03-07T05:49:59;101306.91;;;8.78;51.98
9764;BME280;4921;43.214;27.936;2024-03-07T05:52:24;101285.28;;;8.76;50.62
9764;BME280;4921;43.214;27.936;2024-03-07T05:54:50;101303.22;;;8.91;50.72
9764;BME280;4921;43.214;27.936;2024-03-07T05:57:15;101303.88;;;9.05;51.52
9764;BME280;4921;43.214;27.936;2024-03-07T05:59:41;101312.56;;;8.90;52.29
9764;BME280;4921;43.214;27.936;2024-03-07T06:02:07;101310.16;;;9.23;51.71
9764;BME280;4921;43.214;27.936;2024-03-07T06:04:32;101313.81;;;9.52;52.57
9764;BME280;4921;43.214;27.936;2024-03-07T06:06:59;101299.41;;;9.55;52.06
9764;BME280;4921;43.214;27.936;2024-03-07T06:09:25;101328.56;;;9.48;52.54
9764;BME280;4921;43.214;27.936;2024-03-07T06:11:52;101323.00;;;9.65;52.85
9764;BME280;4921;43.214;27.936;2024-03-07T06:14:17;101322.19;;;9.64;53.56
9764;BME280;4921;43.214;27.936;2024-03-07T06:16:43;101313.44;;;9.79;54.46
9764;BME280;4921;43.214;27.936;2024-03-07T06:19:09;101327.25;;;10.09;53.45
9764;BME280;4921;43.214;27.936;2024-03-07T06:21:36;101327.34;;;10.21;53.09
9764;BME280;4921;43.214;27.936;2024-03-07T06:24:02;101314.22;;;10.26;53.81
9764;BME280;4921;43.214;27.936;2024-03-07T06:26:31;101332.47;;;10.60;54.25
9764;BME280;4921;43.214;27.936;2024-03-07T06:29:16;101339.16;;;10.79;52.82
9764;BME280;4921;43.214;27.936;2024-03-07T06:31:42;101331.44;;;10.93;53.10
9764;BME280;4921;43.214;27.936;2024-03-07T06:34:08;101343.28;;;10.65;52.75
9764;BME280;4921;43.214;27.936;2024-03-07T06:36:34;101340.81;;;10.72;52.42
9764;BME280;4921;43.214;27.936;2024-03-07T06:39:00;101346.75;;;11.03;52.69
9764;BME280;4921;43.214;27.936;2024-03-07T06:41:26;101331.63;;;11.09;52.62
9764;BME280;4921;43.214;27.936;2024-03-07T06:43:52;101342.50;;;11.59;52.20
9764;BME280;4921;43.214;27.936;2024-03-07T06:46:20;101340.88;;;11.25;51.00
9764;BME280;4921;43.214;27.936;2024-03-07T06:48:46;101332.75;;;11.29;51.05
9764;BME280;4921;43.214;27.936;2024-03-07T06:51:12;101332.22;;;11.14;50.76
9764;BME280;4921;43.214;27.936;2024-03-07T06:53:38;101319.09;;;11.65;51.55
9764;BME280;4921;43.214;27.936;2024-03-07T06:56:04;101335.91;;;11.72;50.09
9764;BME280;4921;43.214;27.936;2024-03-07T06:58:32;101319.38;;;12.08;50.29
9764;BME280;4921;43.214;27.936;2024-03-07T07:00:57;101325.34;;;11.86;47.71
9764;BME280;4921;43.214;27.936;2024-03-07T07:03:25;101329.06;;;12.02;47.87
9764;BME280;4921;43.214;27.936;2024-03-07T07:05:54;101331.13;;;12.17;47.19
9764;BME280;4921;43.214;27.936;2024-03-07T07:08:20;101330.44;;;12.56;48.00
9764;BME280;4921;43.214;27.936;2024-03-07T07:10:47;101332.63;;;12.39;46.86
9764;BME280;4921;43.214;27.936;2024-03-07T07:13:12;101334.13;;;12.12;46.73
9764;BME280;4921;43.214;27.936;2024-03-07T07:15:38;101331.06;;;11.48;46.40
9764;BME280;4921;43.214;27.936;2024-03-07T07:18:05;101334.00;;;11.96;47.61
9764;BME280;4921;43.214;27.936;2024-03-07T07:20:33;101339.75;;;12.40;46.95
9764;BME280;4921;43.214;27.936;2024-03-07T07:23:00;101336.06;;;12.11;47.13
9764;BME280;4921;43.214;27.936;2024-03-07T07:25:27;101350.69;;;12.48;45.84
9764;BME280;4921;43.214;27.936;2024-03-07T07:27:53;101349.38;;;11.85;47.28
9764;BME280;4921;43.214;27.936;2024-03-07T07:30:20;101351.16;;;10.95;48.46
9764;BME280;4921;43.214;27.936;2024-03-07T07:32:50;101368.50;;;11.37;49.21
9764;BME280;4921;43.214;27.936;2024-03-07T07:35:16;101365.34;;;11.80;49.46
9764;BME280;4921;43.214;27.936;2024-03-07T07:37:44;101362.16;;;11.04;52.56
9764;BME280;4921;43.214;27.936;2024-03-07T07:40:12;101366.69;;;11.00;53.21
9764;BME280;4921;43.214;27.936;2024-03-07T07:42:46;101366.41;;;10.72;52.99
9764;BME280;4921;43.214;27.936;2024-03-07T07:45:13;101364.25;;;10.78;53.61
9764;BME280;4921;43.214;27.936;2024-03-07T07:47:40;101364.03;;;10.91;55.27
9764;BME280;4921;43.214;27.936;2024-03-07T07:50:11;101362.47;;;11.23;53.33
9764;BME280;4921;43.214;27.936;2024-03-07T07:52:55;101379.13;;;11.47;53.18
9764;BME280;4921;43.214;27.936;2024-03-07T07:55:25;101366.75;;;11.53;51.99
9764;BME280;4921;43.214;27.936;2024-03-07T07:57:56;101378.31;;;11.47;52.97
9764;BME280;4921;43.214;27.936;2024-03-07T08:00:24;101377.22;;;11.60;52.75
9764;BME280;4921;43.214;27.936;2024-03-07T08:02:54;101382.72;;;11.80;52.05
9764;BME280;4921;43.214;27.936;2024-03-07T08:05:22;101370.16;;;11.50;51.86
9764;BME280;4921;43.214;27.936;2024-03-07T08:07:54;101390.91;;;11.36;52.31
9764;BME280;4921;43.214;27.936;2024-03-07T08:10:23;101381.31;;;11.54;51.59
9764;BME280;4921;43.214;27.936;2024-03-07T08:12:51;101377.66;;;11.82;52.41
9764;BME280;4921;43.214;27.936;2024-03-07T08:15:17;101385.06;;;11.37;52.35
9764;BME280;4921;43.214;27.936;2024-03-07T08:17:44;101396.09;;;11.37;53.47
9764;BME280;4921;43.214;27.936;2024-03-07T08:20:11;101390.44;;;11.34;53.30
9764;BME280;4921;43.214;27.936;2024-03-07T08:22:41;101390.50;;;11.78;53.08
9764;BME280;4921;43.214;27.936;2024-03-07T08:25:14;101382.97;;;11.87;52.32
9764;BME280;4921;43.214;27.936;2024-03-07T08:27:41;101390.19;;;11.59;52.15
9764;BME280;4921;43.214;27.936;2024-03-07T08:30:08;101372.56;;;11.52;52.42
9764;BME280;4921;43.214;27.936;2024-03-07T08:32:48;101389.06;;;11.40;52.70
9764;BME280;4921;43.214;27.936;2024-03-07T08:35:15;101398.00;;;10.95;53.80
9764;BME280;4921;43.214;27.936;2024-03-07T08:37:45;101400.19;;;10.81;54.79
9764;BME280;4921;43.214;27.936;2024-03-07T08:40:12;101403.63;;;11.07;53.81
9764;BME280;4921;43.214;27.936;2024-03-07T08:42:48;101392.75;;;11.02;54.06
9764;BME280;4921;43.214;27.936;2024-03-07T08:45:16;101403.72;;;11.52;53.02
9764;BME280;4921;43.214;27.936;2024-03-07T08:47:47;101408.50;;;11.64;53.20
9764;BME280;4921;43.214;27.936;2024-03-07T08:50:14;101397.41;;;11.72;52.67
9764;BME280;4921;43.214;27.936;2024-03-07T08:52:41;101395.88;;;11.42;52.45
9764;BME280;4921;43.214;27.936;2024-03-07T08:55:08;101402.31;;;11.26;52.83
9764;BME280;4921;43.214;27.936;2024-03-07T08:57:37;101416.22;;;10.88;53.10
9764;BME280;4921;43.214;27.936;2024-03-07T09:00:06;101409.53;;;11.18;51.83
9764;BME280;4921;43.214;27.936;2024-03-07T09:02:37;101406.97;;;11.34;51.84
9764;BME280;4921;43.214;27.936;2024-03-07T09:05:04;101416.47;;;11.65;52.44
9764;BME280;4921;43.214;27.936;2024-03-07T09:07:30;101410.13;;;11.44;51.24
9764;BME280;4921;43.214;27.936;2024-03-07T09:09:56;101414.31;;;11.71;49.91
9764;BME280;4921;43.214;27.936;2024-03-07T09:14:57;101398.28;;;11.97;46.29
9764;BME280;4921;43.214;27.936;2024-03-07T09:17:23;101420.34;;;11.64;49.30
9764;BME280;4921;43.214;27.936;2024-03-07T09:19:48;101423.19;;;12.21;49.89
9764;BME280;4921;43.214;27.936;2024-03-07T09:22:15;101428.78;;;12.12;51.59
9764;BME280;4921;43.214;27.936;2024-03-07T09:24:40;101422.25;;;12.29;51.64
9764;BME280;4921;43.214;27.936;2024-03-07T09:27:06;101425.78;;;12.05;52.08
9764;BME280;4921;43.214;27.936;2024-03-07T09:29:32;101427.00;;;11.63;53.59
9764;BME280;4921;43.214;27.936;2024-03-07T09:31:57;101401.84;;;11.65;52.64
9764;BME280;4921;43.214;27.936;2024-03-07T09:34:24;101416.03;;;11.55;52.65
9764;BME280;4921;43.214;27.936;2024-03-07T09:36:50;101416.94;;;11.67;53.57
9764;BME280;4921;43.214;27.936;2024-03-07T09:39:17;101417.88;;;11.30;55.23
9764;BME280;4921;43.214;27.936;2024-03-07T09:41:43;101424.66;;;11.74;53.91
9764;BME280;4921;43.214;27.936;2024-03-07T09:44:09;101422.75;;;11.66;52.88
9764;BME280;4921;43.214;27.936;2024-03-07T09:49:13;101431.03;;;11.45;53.73
9764;BME280;4921;43.214;27.936;2024-03-07T09:51:39;101412.16;;;11.35;54.33
9764;BME280;4921;43.214;27.936;2024-03-07T09:54:05;101422.69;;;11.54;53.46
9764;BME280;4921;43.214;27.936;2024-03-07T09:56:31;101432.72;;;11.58;52.95
9764;BME280;4921;43.214;27.936;2024-03-07T09:59:04;101440.72;;;11.72;52.67
9764;BME280;4921;43.214;27.936;2024-03-07T10:01:34;101428.00;;;11.38;53.25
9764;BME280;4921;43.214;27.936;2024-03-07T10:04:01;101422.22;;;11.31;54.24
9764;BME280;4921;43.214;27.936;2024-03-07T10:09:03;101433.25;;;11.52;53.13
9764;BME280;4921;43.214;27.936;2024-03-07T10:14:05;101425.84;;;12.30;51.85
9764;BME280;4921;43.214;27.936;2024-03-07T10:16:32;101412.13;;;12.09;52.11
9764;BME280;4921;43.214;27.936;2024-03-07T10:18:59;101400.25;;;12.08;51.53
9764;BME280;4921;43.214;27.936;2024-03-07T10:21:27;101422.97;;;11.81;53.72
9764;BME280;4921;43.214;27.936;2024-03-07T10:24:07;101413.97;;;12.29;52.24
9764;BME280;4921;43.214;27.936;2024-03-07T10:26:39;101415.03;;;12.49;51.42
9764;BME280;4921;43.214;27.936;2024-03-07T10:29:05;101404.09;;;12.76;49.54
9764;BME280;4921;43.214;27.936;2024-03-07T10:31:34;101410.91;;;12.55;49.26
9764;BME280;4921;43.214;27.936;2024-03-07T10:34:03;101407.44;;;12.46;49.92
9764;BME280;4921;43.214;27.936;2024-03-07T10:36:30;101414.44;;;12.31;49.74
9764;BME280;4921;43.214;27.936;2024-03-07T10:39:00;101400.63;;;12.55;50.00
9764;BME280;4921;43.214;27.936;2024-03-07T10:41:46;101407.03;;;11.99;51.11
9764;BME280;4921;43.214;27.936;2024-03-07T10:44:19;101397.41;;;11.72;50.81
9764;BME280;4921;43.214;27.936;2024-03-07T10:46:52;101409.88;;;11.37;49.78
9764;BME280;4921;43.214;27.936;2024-03-07T10:49:19;101393.63;;;10.74;51.75
9764;BME280;4921;43.214;27.936;2024-03-07T10:51:55;101403.97;;;10.48;52.21
9764;BME280;4921;43.214;27.936;2024-03-07T10:54:48;101400.41;;;10.47;54.41
9764;BME280;4921;43.214;27.936;2024-03-07T10:59:56;101389.00;;;10.57;57.27
9764;BME280;4921;43.214;27.936;2024-03-07T11:02:44;101381.66;;;10.41;54.08
9764;BME280;4921;43.214;27.936;2024-03-07T11:05:13;101392.19;;;10.39;55.46
9764;BME280;4921;43.214;27.936;2024-03-07T11:07:41;101398.84;;;10.67;52.96
9764;BME280;4921;43.214;27.936;2024-03-07T11:10:08;101393.19;;;10.63;54.72
9764;BME280;4921;43.214;27.936;2024-03-07T11:12:38;101394.38;;;10.54;53.83
9764;BME280;4921;43.214;27.936;2024-03-07T11:15:06;101388.88;;;10.16;55.96
9764;BME280;4921;43.214;27.936;2024-03-07T11:17:42;101396.28;;;10.24;56.46
9764;BME280;4921;43.214;27.936;2024-03-07T11:20:38;101398.13;;;10.49;54.81
9764;BME280;4921;43.214;27.936;2024-03-07T11:23:32;101387.19;;;10.32;55.10
9764;BME280;4921;43.214;27.936;2024-03-07T11:26:08;101391.13;;;10.52;54.88
9764;BME280;4921;43.214;27.936;2024-03-07T11:28:36;101389.38;;;10.10;55.78
9764;BME280;4921;43.214;27.936;2024-03-07T11:31:14;101390.59;;;9.66;55.62
9764;BME280;4921;43.214;27.936;2024-03-07T11:34:15;101385.09;;;9.83;55.21
9764;BME280;4921;43.214;27.936;2024-03-07T11:36:45;101381.81;;;9.89;57.09
9764;BME280;4921;43.214;27.936;2024-03-07T11:39:42;101383.28;;;9.78;56.76
9764;BME280;4921;43.214;27.936;2024-03-07T11:42:27;101387.75;;;9.20;55.15
9764;BME280;4921;43.214;27.936;2024-03-07T11:44:57;101373.97;;;9.45;55.66
9764;BME280;4921;43.214;27.936;2024-03-07T11:47:34;101369.75;;;9.39;54.94
9764;BME280;4921;43.214;27.936;2024-03-07T11:50:01;101381.09;;;9.55;54.85
9764;BME280;4921;43.214;27.936;2024-03-07T11:52:27;101376.88;;;9.57;54.42
9764;BME280;4921;43.214;27.936;2024-03-07T11:54:53;101386.91;;;9.45;56.49
9764;BME280;4921;43.214;27.936;2024-03-07T11:57:22;101382.53;;;9.44;55.84
9764;BME280;4921;43.214;27.936;2024-03-07T11:59:58;101368.47;;;9.54;56.88
9764;BME280;4921;43.214;27.936;2024-03-07T12:02:26;101371.91;;;10.05;55.01
9764;BME280;4921;43.214;27.936;2024-03-07T12:04:53;101376.97;;;10.33;54.98
9764;BME280;4921;43.214;27.936;2024-03-07T12:07:19;101372.22;;;10.13;56.22
9764;BME280;4921;43.214;27.936;2024-03-07T12:09:48;101374.63;;;10.52;54.71
9764;BME280;4921;43.214;27.936;2024-03-07T12:12:17;101380.97;;;9.97;54.85
9764;BME280;4921;43.214;27.936;2024-03-07T12:14:43;101385.13;;;9.57;55.17
9764;BME280;4921;43.214;27.936;2024-03-07T12:19:44;101383.09;;;9.92;55.97
9764;BME280;4921;43.214;27.936;2024-03-07T12:22:12;101371.91;;;10.14;54.52
9764;BME280;4921;43.214;27.936;2024-03-07T12:24:39;101373.41;;;9.86;55.79
9764;BME280;4921;43.214;27.936;2024-03-07T12:27:11;101374.84;;;10.09;55.45
9764;BME280;4921;43.214;27.936;2024-03-07T12:29:40;101383.06;;;10.18;54.20
9764;BME280;4921;43.214;27.936;2024-03-07T12:32:06;101375.69;;;10.39;54.80
9764;BME280;4921;43.214;27.936;2024-03-07T12:34:42;101381.50;;;10.37;55.27
9764;BME280;4921;43.214;27.936;2024-03-07T12:37:11;101385.00;;;10.46;53.72
9764;BME280;4921;43.214;27.936;2024-03-07T12:39:41;101369.72;;;10.28;54.08
9764;BME280;4921;43.214;27.936;2024-03-07T12:42:15;101380.56;;;10.33;54.62
9764;BME280;4921;43.214;27.936;2024-03-07T12:44:43;101363.75;;;9.71;56.09
9764;BME280;4921;43.214;27.936;2024-03-07T12:47:14;101375.69;;;9.84;56.65
9764;BME280;4921;43.214;27.936;2024-03-07T12:49:44;101371.00;;;9.84;55.75
9764;BME280;4921;43.214;27.936;2024-03-07T12:52:10;101374.53;;;9.93;55.06
9764;BME280;4921;43.214;27.936;2024-03-07T12:54:38;101375.34;;;9.85;56.28
9764;BME280;4921;43.214;27.936;2024-03-07T12:57:10;101365.63;;;9.96;56.02
9764;BME280;4921;43.214;27.936;2024-03-07T12:59:37;101369.50;;;9.95;56.23
9764;BME280;4921;43.214;27.936;2024-03-07T13:02:06;101369.47;;;10.13;56.73
9764;BME280;4921;43.214;27.936;2024-03-07T13:04:32;101366.25;;;10.11;56.53
9764;BME280;4921;43.214;27.936;2024-03-07T13:06:58;101386.31;;;9.94;56.16
9764;BME280;4921;43.214;27.936;2024-03-07T13:09:27;101369.91;;;9.68;57.12
9764;BME280;4921;43.214;27.936;2024-03-07T13:11:54;101380.47;;;9.41;56.80
9764;BME280;4921;43.214;27.936;2024-03-07T13:14:19;101370.56;;;8.80;59.39
9764;BME280;4921;43.214;27.936;2024-03-07T13:16:45;101374.28;;;8.75;60.79
9764;BME280;4921;43.214;27.936;2024-03-07T13:19:11;101379.63;;;8.98;59.50
9764;BME280;4921;43.214;27.936;2024-03-07T13:21:38;101366.22;;;9.13;58.22
9764;BME280;4921;43.214;27.936;2024-03-07T13:24:05;101361.06;;;9.37;58.51
9764;BME280;4921;43.214;27.936;2024-03-07T13:26:32;101355.06;;;9.01;59.03